sensor_id;sensor_type;location;lat;lon;timestamp;P1;durP1;ratioP1;P2;durP2;ratioP2
45382;SDS011;42455;51.660;5.824;2023-06-24T00:00:03;14.0;;;13.0;;
45382;SDS011;42455;51.660;5.824;2023-06-24T00:05:10;14.0;;;13.0;;
45382;SDS011;42455;51.660;5.824;2023-06-24T00:10:16;14.0;;;13.0;;
45382;SDS011;42455;51.660;5.824;2023-06-24T00:15:22;14.5;;;13.0;;
45382;SDS011;42455;51.660;5.824;2023-06-24T00:20:28;13.0;;;12.0;;
45382;SDS011;42455;51.660;5.824;2023-06-24T00:25:34;13.0;;;12.0;;
45382;SDS011;42455;51.660;5.824;2023-06-24T00:30:41;13.0;;;12.0;;
45382;SDS011;42455;51.660;5.824;2023-06-24T00:35:47;13.0;;;12.0;;
45382;SDS011;42455;51.660;5.824;2023-06-24T00:40:53;13.0;;;12.0;;
45382;SDS011;42455;51.660;5.824;2023-06-24T00:46:00;13.5;;;12.0;;
45382;SDS011;42455;51.660;5.824;2023-06-24T00:51:06;13.0;;;12.0;;
45382;SDS011;42455;51.660;5.824;2023-06-24T00:56:12;13.0;;;12.0;;
45382;SDS011;42455;51.660;5.824;2023-06-24T01:01:18;13.0;;;12.0;;
45382;SDS011;42455;51.660;5.824;2023-06-24T01:06:24;13.0;;;11.0;;
45382;SDS011;42455;51.660;5.824;2023-06-24T01:11:30;13.0;;;12.0;;
45382;SDS011;42455;51.660;5.824;2023-06-24T01:16:39;13.0;;;12.0;;
45382;SDS011;42455;51.660;5.824;2023-06-24T01:22:26;13.0;;;12.0;;
45382;SDS011;42455;51.660;5.824;2023-06-24T01:29:39;14.0;;;13.0;;
45382;SDS011;42455;51.660;5.824;2023-06-24T01:34:01;14.0;;;12.0;;
45382;SDS011;42455;51.660;5.824;2023-06-24T01:37:08;14.5;;;13.0;;
45382;SDS011;42455;51.660;5.824;2023-06-24T01:42:11;16.0;;;14.0;;
45382;SDS011;42455;51.660;5.824;2023-06-24T01:47:14;16.0;;;14.5;;
45382;SDS011;42455;51.660;5.824;2023-06-24T01:52:20;15.0;;;14.0;;
45382;SDS011;42455;51.660;5.824;2023-06-24T02:02:32;16.0;;;14.0;;
45382;SDS011;42455;51.660;5.824;2023-06-24T02:07:39;17.0;;;15.0;;
45382;SDS011;42455;51.660;5.824;2023-06-24T02:12:46;17.5;;;16.0;;
45382;SDS011;42455;51.660;5.824;2023-06-24T02:17:51;16.0;;;15.0;;
45382;SDS011;42455;51.660;5.824;2023-06-24T02:22:57;17.0;;;16.0;;
45382;SDS011;42455;51.660;5.824;2023-06-24T02:28:03;16.0;;;15.0;;
45382;SDS011;42455;51.660;5.824;2023-06-24T02:33:10;16.0;;;15.0;;
45382;SDS011;42455;51.660;5.824;2023-06-24T02:38:16;16.0;;;15.0;;
45382;SDS011;42455;51.660;5.824;2023-06-24T02:43:22;17.0;;;15.0;;
45382;SDS011;42455;51.660;5.824;2023-06-24T02:48:30;17.0;;;16.0;;
45382;SDS011;42455;51.660;5.824;2023-06-24T02:53:34;17.0;;;15.0;;
45382;SDS011;42455;51.660;5.824;2023-06-24T02:58:41;17.0;;;16.0;;
45382;SDS011;42455;51.660;5.824;2023-06-24T03:03:47;17.0;;;16.0;;
45382;SDS011;42455;51.660;5.824;2023-06-24T03:08:53;16.0;;;14.0;;
45382;SDS011;42455;51.660;5.824;2023-06-24T03:13:59;16.0;;;15.0;;
45382;SDS011;42455;51.660;5.824;2023-06-24T03:19:06;16.0;;;15.0;;
45382;SDS011;42455;51.660;5.824;2023-06-24T03:24:12;17.0;;;16.0;;
45382;SDS011;42455;51.660;5.824;2023-06-24T03:29:18;18.0;;;17.0;;
45382;SDS011;42455;51.660;5.824;2023-06-24T03:34:24;18.0;;;17.0;;
45382;SDS011;42455;51.660;5.824;2023-06-24T03:39:30;19.0;;;17.0;;
45382;SDS011;42455;51.660;5.824;2023-06-24T03:44:37;19.0;;;17.0;;
45382;SDS011;42455;51.660;5.824;2023-06-24T03:49:43;20.0;;;18.0;;
45382;SDS011;42455;51.660;5.824;2023-06-24T03:54:49;20.0;;;18.0;;
45382;SDS011;42455;51.660;5.824;2023-06-24T03:59:55;20.0;;;18.0;;
45382;SDS011;42455;51.660;5.824;2023-06-24T04:05:01;19.5;;;18.0;;
45382;SDS011;42455;51.660;5.824;2023-06-24T04:10:08;20.5;;;18.5;;
45382;SDS011;42455;51.660;5.824;2023-06-24T04:15:14;22.0;;;20.0;;
45382;SDS011;42455;51.660;5.824;2023-06-24T04:20:20;24.0;;;22.0;;
45382;SDS011;42455;51.660;5.824;2023-06-24T04:25:26;25.0;;;23.0;;
45382;SDS011;42455;51.660;5.824;2023-06-24T04:30:33;24.0;;;22.0;;
45382;SDS011;42455;51.660;5.824;2023-06-24T04:35:39;24.0;;;21.0;;
45382;SDS011;42455;51.660;5.824;2023-06-24T04:40:45;24.0;;;22.0;;
45382;SDS011;42455;51.660;5.824;2023-06-24T04:45:51;24.0;;;22.0;;
45382;SDS011;42455;51.660;5.824;2023-06-24T04:50:57;25.0;;;23.0;;
45382;SDS011;42455;51.660;5.824;2023-06-24T04:56:03;26.0;;;23.0;;
45382;SDS011;42455;51.660;5.824;2023-06-24T05:01:10;25.0;;;23.0;;
45382;SDS011;42455;51.660;5.824;2023-06-24T05:06:16;25.0;;;23.0;;
45382;SDS011;42455;51.660;5.824;2023-06-24T05:11:22;25.0;;;23.0;;
45382;SDS011;42455;51.660;5.824;2023-06-24T05:16:28;23.0;;;21.0;;
45382;SDS011;42455;51.660;5.824;2023-06-24T05:21:35;21.0;;;19.0;;
45382;SDS011;42455;51.660;5.824;2023-06-24T05:26:40;20.0;;;18.0;;
45382;SDS011;42455;51.660;5.824;2023-06-24T05:31:46;19.0;;;18.0;;
45382;SDS011;42455;51.660;5.824;2023-06-24T05:36:52;18.0;;;16.0;;
45382;SDS011;42455;51.660;5.824;2023-06-24T05:41:58;17.0;;;15.0;;
45382;SDS011;42455;51.660;5.824;2023-06-24T05:47:05;15.0;;;13.0;;
45382;SDS011;42455;51.660;5.824;2023-06-24T05:52:11;15.0;;;13.0;;
45382;SDS011;42455;51.660;5.824;2023-06-24T05:57:17;14.0;;;12.0;;
45382;SDS011;42455;51.660;5.824;2023-06-24T06:02:23;14.0;;;13.0;;
45382;SDS011;42455;51.660;5.824;2023-06-24T06:07:29;15.0;;;14.0;;
45382;SDS011;42455;51.660;5.824;2023-06-24T06:12:36;15.0;;;13.0;;
45382;SDS011;42455;51.660;5.824;2023-06-24T06:17:42;15.0;;;13.0;;
45382;SDS011;42455;51.660;5.824;2023-06-24T06:22:48;16.0;;;14.0;;
45382;SDS011;42455;51.660;5.824;2023-06-24T06:27:54;14.0;;;13.0;;
45382;SDS011;42455;51.660;5.824;2023-06-24T06:33:01;14.0;;;13.0;;
45382;SDS011;42455;51.660;5.824;2023-06-24T06:38:07;14.0;;;12.5;;
45382;SDS011;42455;51.660;5.824;2023-06-24T06:43:13;13.0;;;12.0;;
45382;SDS011;42455;51.660;5.824;2023-06-24T06:48:19;13.0;;;12.0;;
45382;SDS011;42455;51.660;5.824;2023-06-24T06:53:25;12.0;;;11.0;;
45382;SDS011;42455;51.660;5.824;2023-06-24T06:58:32;13.0;;;12.0;;
45382;SDS011;42455;51.660;5.824;2023-06-24T07:03:38;12.0;;;11.0;;
45382;SDS011;42455;51.660;5.824;2023-06-24T07:08:44;13.0;;;11.0;;
45382;SDS011;42455;51.660;5.824;2023-06-24T07:13:50;13.0;;;12.0;;
45382;SDS011;42455;51.660;5.824;2023-06-24T07:18:56;13.0;;;12.0;;
45382;SDS011;42455;51.660;5.824;2023-06-24T07:24:03;12.0;;;10.0;;
45382;SDS011;42455;51.660;5.824;2023-06-24T07:29:09;12.0;;;11.0;;
45382;SDS011;42455;51.660;5.824;2023-06-24T07:34:15;12.0;;;11.0;;
45382;SDS011;42455;51.660;5.824;2023-06-24T07:39:21;12.0;;;11.0;;
45382;SDS011;42455;51.660;5.824;2023-06-24T07:44:27;12.0;;;11.0;;
45382;SDS011;42455;51.660;5.824;2023-06-24T07:49:34;9.0;;;9.0;;
45382;SDS011;42455;51.660;5.824;2023-06-24T07:54:40;5.0;;;5.0;;
45382;SDS011;42455;51.660;5.824;2023-06-24T07:59:46;6.0;;;5.0;;
45382;SDS011;42455;51.660;5.824;2023-06-24T08:04:52;5.5;;;5.0;;
45382;SDS011;42455;51.660;5.824;2023-06-24T08:09:59;5.0;;;5.0;;
45382;SDS011;42455;51.660;5.824;2023-06-24T08:15:05;5.0;;;5.0;;
45382;SDS011;42455;51.660;5.824;2023-06-24T08:20:11;5.0;;;4.0;;
45382;SDS011;42455;51.660;5.824;2023-06-24T08:25:17;6.0;;;6.0;;
45382;SDS011;42455;51.660;5.824;2023-06-24T08:30:24;7.0;;;6.0;;
45382;SDS011;42455;51.660;5.824;2023-06-24T08:35:30;6.0;;;6.0;;
45382;SDS011;42455;51.660;5.824;2023-06-24T08:40:36;6.0;;;6.0;;
45382;SDS011;42455;51.660;5.824;2023-06-24T08:45:42;7.0;;;6.0;;
45382;SDS011;42455;51.660;5.824;2023-06-24T08:50:51;6.0;;;6.0;;
45382;SDS011;42455;51.660;5.824;2023-06-24T09:01:01;5.0;;;5.0;;
45382;SDS011;42455;51.660;5.824;2023-06-24T09:06:07;5.0;;;4.0;;
45382;SDS011;42455;51.660;5.824;2023-06-24T09:11:13;4.0;;;3.0;;
45382;SDS011;42455;51.660;5.824;2023-06-24T09:16:20;4.0;;;4.0;;
45382;SDS011;42455;51.660;5.824;2023-06-24T09:21:26;4.0;;;4.0;;
45382;SDS011;42455;51.660;5.824;2023-06-24T09:26:32;4.0;;;4.0;;
45382;SDS011;42455;51.660;5.824;2023-06-24T09:31:38;3.0;;;3.0;;
45382;SDS011;42455;51.660;5.824;2023-06-24T09:36:45;4.0;;;4.0;;
45382;SDS011;42455;51.660;5.824;2023-06-24T09:41:51;4.0;;;3.0;;
45382;SDS011;42455;51.660;5.824;2023-06-24T09:46:57;4.0;;;3.0;;
45382;SDS011;42455;51.660;5.824;2023-06-24T09:52:03;6.0;;;3.0;;
45382;SDS011;42455;51.660;5.824;2023-06-24T09:57:09;4.0;;;3.0;;
45382;SDS011;42455;51.660;5.824;2023-06-24T10:02:18;3.0;;;3.0;;
45382;SDS011;42455;51.660;5.824;2023-06-24T10:07:22;3.0;;;2.0;;
45382;SDS011;42455;51.660;5.824;2023-06-24T10:12:28;3.0;;;3.0;;
45382;SDS011;42455;51.660;5.824;2023-06-24T10:17:34;3.0;;;2.0;;
45382;SDS011;42455;51.660;5.824;2023-06-24T10:22:43;3.0;;;3.0;;
45382;SDS011;42455;51.660;5.824;2023-06-24T10:27:47;3.0;;;2.0;;
45382;SDS011;42455;51.660;5.824;2023-06-24T10:32:53;3.0;;;3.0;;
45382;SDS011;42455;51.660;5.824;2023-06-24T10:37:59;3.0;;;3.0;;
45382;SDS011;42455;51.660;5.824;2023-06-24T10:43:23;3.0;;;2.0;;
45382;SDS011;42455;51.660;5.824;2023-06-24T10:48:12;3.0;;;3.0;;
45382;SDS011;42455;51.660;5.824;2023-06-24T10:53:18;3.0;;;3.0;;
45382;SDS011;42455;51.660;5.824;2023-06-24T10:58:23;3.0;;;3.0;;
45382;SDS011;42455;51.660;5.824;2023-06-24T11:03:34;3.0;;;3.0;;
45382;SDS011;42455;51.660;5.824;2023-06-24T11:08:35;4.0;;;3.0;;
45382;SDS011;42455;51.660;5.824;2023-06-24T11:13:42;3.0;;;3.0;;
45382;SDS011;42455;51.660;5.824;2023-06-24T11:18:48;4.0;;;3.0;;
45382;SDS011;42455;51.660;5.824;2023-06-24T11:23:54;3.5;;;3.0;;
45382;SDS011;42455;51.660;5.824;2023-06-24T11:29:00;3.0;;;3.0;;
45382;SDS011;42455;51.660;5.824;2023-06-24T11:34:06;4.0;;;3.0;;
45382;SDS011;42455;51.660;5.824;2023-06-24T11:39:20;3.0;;;3.0;;
45382;SDS011;42455;51.660;5.824;2023-06-24T11:44:19;3.0;;;3.0;;
45382;SDS011;42455;51.660;5.824;2023-06-24T11:49:25;3.0;;;3.0;;
45382;SDS011;42455;51.660;5.824;2023-06-24T11:54:40;3.0;;;3.0;;
45382;SDS011;42455;51.660;5.824;2023-06-24T11:59:38;3.0;;;3.0;;
45382;SDS011;42455;51.660;5.824;2023-06-24T12:09:50;3.0;;;3.0;;
45382;SDS011;42455;51.660;5.824;2023-06-24T12:14:56;3.0;;;3.0;;
45382;SDS011;42455;51.660;5.824;2023-06-24T12:20:03;4.0;;;3.0;;
45382;SDS011;42455;51.660;5.824;2023-06-24T12:25:09;3.0;;;3.0;;
45382;SDS011;42455;51.660;5.824;2023-06-24T12:30:15;3.0;;;3.0;;
45382;SDS011;42455;51.660;5.824;2023-06-24T12:35:21;4.0;;;3.0;;
45382;SDS011;42455;51.660;5.824;2023-06-24T12:40:27;4.0;;;3.0;;
45382;SDS011;42455;51.660;5.824;2023-06-24T12:45:33;3.0;;;3.0;;
45382;SDS011;42455;51.660;5.824;2023-06-24T12:50:40;3.0;;;3.0;;
45382;SDS011;42455;51.660;5.824;2023-06-24T12:55:46;3.0;;;3.0;;
45382;SDS011;42455;51.660;5.824;2023-06-24T13:00:52;3.0;;;3.0;;
45382;SDS011;42455;51.660;5.824;2023-06-24T13:05:58;3.0;;;3.0;;
45382;SDS011;42455;51.660;5.824;2023-06-24T13:11:04;4.0;;;3.0;;
45382;SDS011;42455;51.660;5.824;2023-06-24T13:16:11;4.0;;;4.0;;
45382;SDS011;42455;51.660;5.824;2023-06-24T13:21:17;4.0;;;4.0;;
45382;SDS011;42455;51.660;5.824;2023-06-24T13:26:23;4.0;;;4.0;;
45382;SDS011;42455;51.660;5.824;2023-06-24T13:31:29;4.0;;;4.0;;
45382;SDS011;42455;51.660;5.824;2023-06-24T13:36:36;4.0;;;4.0;;
45382;SDS011;42455;51.660;5.824;2023-06-24T13:41:42;3.0;;;3.0;;
45382;SDS011;42455;51.660;5.824;2023-06-24T13:46:48;4.0;;;4.0;;
45382;SDS011;42455;51.660;5.824;2023-06-24T13:51:54;4.0;;;4.0;;
45382;SDS011;42455;51.660;5.824;2023-06-24T13:57:00;4.0;;;3.0;;
45382;SDS011;42455;51.660;5.824;2023-06-24T14:02:07;5.0;;;4.0;;
45382;SDS011;42455;51.660;5.824;2023-06-24T14:07:13;5.0;;;4.0;;
45382;SDS011;42455;51.660;5.824;2023-06-24T14:12:19;5.0;;;4.0;;
45382;SDS011;42455;51.660;5.824;2023-06-24T14:17:25;4.0;;;3.5;;
45382;SDS011;42455;51.660;5.824;2023-06-24T14:22:31;4.0;;;4.0;;
45382;SDS011;42455;51.660;5.824;2023-06-24T14:27:38;4.0;;;4.0;;
45382;SDS011;42455;51.660;5.824;2023-06-24T14:32:44;4.0;;;4.0;;
45382;SDS011;42455;51.660;5.824;2023-06-24T14:37:50;4.0;;;4.0;;
45382;SDS011;42455;51.660;5.824;2023-06-24T14:42:56;4.0;;;3.0;;
45382;SDS011;42455;51.660;5.824;2023-06-24T14:48:02;4.0;;;3.0;;
45382;SDS011;42455;51.660;5.824;2023-06-24T14:53:09;4.0;;;4.0;;
45382;SDS011;42455;51.660;5.824;2023-06-24T14:58:15;4.0;;;3.5;;
45382;SDS011;42455;51.660;5.824;2023-06-24T15:03:21;5.0;;;4.0;;
45382;SDS011;42455;51.660;5.824;2023-06-24T15:08:27;4.0;;;4.0;;
45382;SDS011;42455;51.660;5.824;2023-06-24T15:13:34;4.0;;;3.0;;
45382;SDS011;42455;51.660;5.824;2023-06-24T15:18:43;4.0;;;3.0;;
45382;SDS011;42455;51.660;5.824;2023-06-24T15:23:46;4.0;;;3.0;;
45382;SDS011;42455;51.660;5.824;2023-06-24T15:28:52;4.0;;;3.0;;
45382;SDS011;42455;51.660;5.824;2023-06-24T15:33:58;4.0;;;4.0;;
45382;SDS011;42455;51.660;5.824;2023-06-24T15:39:05;4.0;;;4.0;;
45382;SDS011;42455;51.660;5.824;2023-06-24T15:44:11;4.0;;;4.0;;
45382;SDS011;42455;51.660;5.824;2023-06-24T15:49:17;5.0;;;4.0;;
45382;SDS011;42455;51.660;5.824;2023-06-24T15:54:23;4.0;;;4.0;;
45382;SDS011;42455;51.660;5.824;2023-06-24T15:59:29;4.0;;;4.0;;
45382;SDS011;42455;51.660;5.824;2023-06-24T16:04:36;4.0;;;4.0;;
45382;SDS011;42455;51.660;5.824;2023-06-24T16:09:42;4.0;;;4.0;;
45382;SDS011;42455;51.660;5.824;2023-06-24T16:14:48;4.0;;;4.0;;
45382;SDS011;42455;51.660;5.824;2023-06-24T16:19:54;4.0;;;4.0;;
45382;SDS011;42455;51.660;5.824;2023-06-24T16:25:00;4.0;;;4.0;;
45382;SDS011;42455;51.660;5.824;2023-06-24T16:30:06;4.0;;;4.0;;
45382;SDS011;42455;51.660;5.824;2023-06-24T16:35:12;4.0;;;4.0;;
45382;SDS011;42455;51.660;5.824;2023-06-24T16:40:18;4.0;;;4.0;;
45382;SDS011;42455;51.660;5.824;2023-06-24T16:45:24;4.0;;;4.0;;
45382;SDS011;42455;51.660;5.824;2023-06-24T16:50:30;4.0;;;4.0;;
45382;SDS011;42455;51.660;5.824;2023-06-24T16:55:37;4.0;;;4.0;;
45382;SDS011;42455;51.660;5.824;2023-06-24T17:00:42;4.0;;;4.0;;
45382;SDS011;42455;51.660;5.824;2023-06-24T17:05:48;4.0;;;4.0;;
45382;SDS011;42455;51.660;5.824;2023-06-24T17:10:54;4.0;;;3.0;;
45382;SDS011;42455;51.660;5.824;2023-06-24T17:16:01;4.0;;;4.0;;
45382;SDS011;42455;51.660;5.824;2023-06-24T17:21:07;4.0;;;4.0;;
45382;SDS011;42455;51.660;5.824;2023-06-24T17:26:13;4.0;;;4.0;;
45382;SDS011;42455;51.660;5.824;2023-06-24T17:31:19;4.0;;;4.0;;
45382;SDS011;42455;51.660;5.824;2023-06-24T17:36:25;4.0;;;4.0;;
45382;SDS011;42455;51.660;5.824;2023-06-24T17:41:32;4.0;;;4.0;;
45382;SDS011;42455;51.660;5.824;2023-06-24T17:46:38;4.0;;;4.0;;
45382;SDS011;42455;51.660;5.824;2023-06-24T17:51:44;4.0;;;4.0;;
45382;SDS011;42455;51.660;5.824;2023-06-24T17:56:50;4.0;;;4.0;;
45382;SDS011;42455;51.660;5.824;2023-06-24T18:01:57;4.5;;;4.0;;
45382;SDS011;42455;51.660;5.824;2023-06-24T18:07:03;4.0;;;4.0;;
45382;SDS011;42455;51.660;5.824;2023-06-24T18:12:09;4.0;;;4.0;;
45382;SDS011;42455;51.660;5.824;2023-06-24T18:17:15;4.0;;;4.0;;
45382;SDS011;42455;51.660;5.824;2023-06-24T18:22:21;5.0;;;4.0;;
45382;SDS011;42455;51.660;5.824;2023-06-24T18:27:28;4.0;;;4.0;;
45382;SDS011;42455;51.660;5.824;2023-06-24T18:32:34;4.0;;;4.0;;
45382;SDS011;42455;51.660;5.824;2023-06-24T18:37:40;4.0;;;4.0;;
45382;SDS011;42455;51.660;5.824;2023-06-24T18:42:46;4.0;;;4.0;;
45382;SDS011;42455;51.660;5.824;2023-06-24T18:47:52;4.0;;;4.0;;
45382;SDS011;42455;51.660;5.824;2023-06-24T18:52:59;4.0;;;4.0;;
45382;SDS011;42455;51.660;5.824;2023-06-24T18:58:05;4.0;;;4.0;;
45382;SDS011;42455;51.660;5.824;2023-06-24T19:03:11;6.0;;;5.0;;
45382;SDS011;42455;51.660;5.824;2023-06-24T19:08:17;5.0;;;4.0;;
45382;SDS011;42455;51.660;5.824;2023-06-24T19:18:30;5.0;;;4.0;;
45382;SDS011;42455;51.660;5.824;2023-06-24T19:23:36;5.0;;;4.0;;
45382;SDS011;42455;51.660;5.824;2023-06-24T19:28:42;5.0;;;4.0;;
45382;SDS011;42455;51.660;5.824;2023-06-24T19:33:48;5.0;;;5.0;;
45382;SDS011;42455;51.660;5.824;2023-06-24T19:38:55;5.0;;;5.0;;
45382;SDS011;42455;51.660;5.824;2023-06-24T19:44:04;6.0;;;5.0;;
45382;SDS011;42455;51.660;5.824;2023-06-24T19:49:07;6.0;;;5.0;;
45382;SDS011;42455;51.660;5.824;2023-06-24T19:54:13;6.0;;;5.0;;
45382;SDS011;42455;51.660;5.824;2023-06-24T19:59:19;6.0;;;6.0;;
45382;SDS011;42455;51.660;5.824;2023-06-24T20:04:26;7.0;;;6.0;;
45382;SDS011;42455;51.660;5.824;2023-06-24T20:09:32;7.0;;;6.0;;
45382;SDS011;42455;51.660;5.824;2023-06-24T20:14:38;7.0;;;6.0;;
45382;SDS011;42455;51.660;5.824;2023-06-24T20:19:44;9.0;;;8.0;;
45382;SDS011;42455;51.660;5.824;2023-06-24T20:24:51;9.0;;;8.0;;
45382;SDS011;42455;51.660;5.824;2023-06-24T20:29:57;7.0;;;6.0;;
45382;SDS011;42455;51.660;5.824;2023-06-24T20:35:03;7.0;;;6.0;;
45382;SDS011;42455;51.660;5.824;2023-06-24T20:40:09;8.0;;;7.0;;
45382;SDS011;42455;51.660;5.824;2023-06-24T20:45:15;7.0;;;7.0;;
45382;SDS011;42455;51.660;5.824;2023-06-24T20:50:22;8.0;;;7.0;;
45382;SDS011;42455;51.660;5.824;2023-06-24T20:55:28;8.0;;;7.0;;
45382;SDS011;42455;51.660;5.824;2023-06-24T21:00:34;8.0;;;7.0;;
45382;SDS011;42455;51.660;5.824;2023-06-24T21:05:40;8.0;;;7.0;;
45382;SDS011;42455;51.660;5.824;2023-06-24T21:10:46;9.0;;;8.0;;
45382;SDS011;42455;51.660;5.824;2023-06-24T21:15:53;8.0;;;7.5;;
45382;SDS011;42455;51.660;5.824;2023-06-24T21:20:59;9.0;;;8.0;;
45382;SDS011;42455;51.660;5.824;2023-06-24T21:26:05;8.0;;;7.0;;
45382;SDS011;42455;51.660;5.824;2023-06-24T21:31:11;9.0;;;8.0;;
45382;SDS011;42455;51.660;5.824;2023-06-24T21:36:17;8.0;;;7.0;;
45382;SDS011;42455;51.660;5.824;2023-06-24T21:41:24;8.0;;;7.0;;
45382;SDS011;42455;51.660;5.824;2023-06-24T21:46:30;8.0;;;7.0;;
45382;SDS011;42455;51.660;5.824;2023-06-24T21:51:37;9.0;;;8.0;;
45382;SDS011;42455;51.660;5.824;2023-06-24T21:56:42;8.0;;;8.0;;
45382;SDS011;42455;51.660;5.824;2023-06-24T22:01:49;9.0;;;8.0;;
45382;SDS011;42455;51.660;5.824;2023-06-24T22:06:55;9.0;;;8.0;;
45382;SDS011;42455;51.660;5.824;2023-06-24T22:12:01;10.0;;;9.0;;
45382;SDS011;42455;51.660;5.824;2023-06-24T22:17:07;9.0;;;8.0;;
45382;SDS011;42455;51.660;5.824;2023-06-24T22:22:13;10.0;;;9.0;;
45382;SDS011;42455;51.660;5.824;2023-06-24T22:27:20;10.0;;;9.0;;
45382;SDS011;42455;51.660;5.824;2023-06-24T22:32:25;10.0;;;9.0;;
45382;SDS011;42455;51.660;5.824;2023-06-24T22:37:31;11.0;;;10.0;;
45382;SDS011;42455;51.660;5.824;2023-06-24T22:42:37;11.0;;;10.0;;
45382;SDS011;42455;51.660;5.824;2023-06-24T22:47:43;10.5;;;9.5;;
45382;SDS011;42455;51.660;5.824;2023-06-24T22:52:50;12.0;;;10.0;;
45382;SDS011;42455;51.660;5.824;2023-06-24T22:57:56;10.0;;;9.0;;
45382;SDS011;42455;51.660;5.824;2023-06-24T23:03:02;11.0;;;10.0;;
45382;SDS011;42455;51.660;5.824;2023-06-24T23:08:09;11.0;;;10.0;;
45382;SDS011;42455;51.660;5.824;2023-06-24T23:13:15;12.0;;;11.0;;
45382;SDS011;42455;51.660;5.824;2023-06-24T23:18:21;12.0;;;11.0;;
45382;SDS011;42455;51.660;5.824;2023-06-24T23:23:27;11.0;;;10.0;;
45382;SDS011;42455;51.660;5.824;2023-06-24T23:28:33;13.0;;;11.0;;
45382;SDS011;42455;51.660;5.824;2023-06-24T23:33:39;12.0;;;11.0;;
45382;SDS011;42455;51.660;5.824;2023-06-24T23:38:46;11.0;;;10.0;;
45382;SDS011;42455;51.660;5.824;2023-06-24T23:43:52;10.0;;;9.0;;
45382;SDS011;42455;51.660;5.824;2023-06-24T23:48:58;11.0;;;10.0;;
45382;SDS011;42455;51.660;5.824;2023-06-24T23:54:04;12.0;;;10.0;;
45382;SDS011;42455;51.660;5.824;2023-06-24T23:59:10;11.0;;;10.0;;
